KBKT/BKT METAR and TAF weather

Enter ICAO airport designator
Station Type Date Time Source
KBKT METAR 2020/07/14 17:58 UTC NOAA

KBKT 141758Z AUTO 36006KT 10SM SCT055 SCT085 32/21 A3000 RMK AO2 SLP158 T03200206 10320 20229 55004 $


Station Type Date Time Source
KBKT Decoded METAR 2020/07/14 17:58 UTC NOAA

Ft. Pickett / Blackstone, VA, United States (KBKT) 37-05N 077-57W
Jul 14, 2020 - 01:58 PM EDT / 2020.07.14 1758 UTC
Wind: from the N (360 degrees) at 7 MPH (6 KT):0
Visibility: 10 mile(s):0
Sky conditions: partly cloudy
Temperature: 89.6 F (32.0 C)
Heat index: 94.3 F (34.6 C):1
Dew Point: 69.1 F (20.6 C)
Relative Humidity: 51%
Pressure (altimeter): 30 in. Hg (1015 hPa)
Pressure tendency: 0.01 inches (0.4 hPa) lower than three hours ago
ob: KBKT 141758Z AUTO 36006KT 10SM SCT055 SCT085 32/21 A3000 RMK AO2 SLP158 T03200206 10320 20229 55004
cycle: 18

Station Type Date Time Source
KBKT TAF UTC NOAA

Error!

Example: see airport list